Prescott, AR (71857)

7:58 PM CST on February 27, 2015 (GMT -0600)
RAWS BLUFF CITY AR US | Change Station
CLOSE
Current Station
Personal Weather Station
Location: Bluff City, AR
Elevation: 359 ft
Nearby Weather Stations

Elev 359 ft 33.69 °N, 93.16 °W | Updated 48 minutes ago

Overcast
Overcast
29 °F
Feels Like 23 °F
N
6
Wind Variable Wind from ENE
Gusts 12.0 mph

Today
High -- | Low -- °F
--% Chance of Precip.
Yesterday
High -- | Low -- °F
Precip. -- in
6:44 AM 6:08 PM
Waxing Gibbous, 73% visible
Pressure 30.57 in
Visibility 10.0 miles
Clouds Clear
Windchill 23 °F
Dew Point 16 °F
Humidity 59%
Rainfall 0.05 in
Snow Depth Not available.
UV 0 out of 12
Pollen 5.00 out of 12
Air Quality Not available.
Flu Activity Not available.
METAR KADF 280056Z AUTO 05008KT 10SM CLR M01/M11 A3052 RMK AO2 T10111111 SLP351 $

More Conditions Fewer Conditions

Pressure 30.57 in
Visibility 10.0 miles
Clouds Clear
Windchill 23 °F
Dew Point 16 °F
Humidity 59%
Rainfall 0.05 in
Snow Depth Not available.
UV 0 out of 12
Pollen 5.00 out of 12
Air Quality Not available.
Flu Activity Not available.
METAR KADF 280056Z AUTO 05008KT 10SM CLR M01/M11 A3052 RMK AO2 T10111111 SLP351 $

More Conditions Fewer Conditions

Nowcast | as of 7:44 PM CST on February 27, 2015

Scattered areas of light snow will be possible along the Interstate 30 corridor of northeast Texas and southwest Arkansas...through the remainder of the evening. Although little to no accumulation is expected...the melting snow may create wet spots especially on bridges and overpasses...where refreezing may occurs...as temperatures will remain just below the freezing mark this evening. Motorists should use caution when traveling across these areas tonight.

×

10-Day Weather Forecast

Almanac

Astronomy

Feb. 27, 2015 Rise Set
Actual Time
Civil Twilight
Nautical Twilight
Astronomical Twilight
Moon
Length of Visible Light
Length of Day
Tomorrow will be .
, % of the Moon is Illuminated

Today's Extremes

State Highs State Lows

Community

WunderPhotos

Upload Photos

1,800,924 photos uploaded!

WunderBlogs® & News

Nearby

Air Quality

  Air Quality AQ Index Pollutant
Not available.

Snow Depth

Station Depth Elevation

Earthquake Activity

City Distance Mag. Time & Date
Minimum magnitude displayed is 2.5.

Coastal Water Temperatures

Place Temperature

Nearby Weather Stations